Time;durP1;ratioP1;P1;durP2;ratioP2;P2;SDS_P1;SDS_P2;PMS_P1;PMS_P2;Temp;Humidity;BMP_temperature;BMP_pressure;BME280_temperature;BME280_humidity;BME280_pressure;Samples;Min_cycle;Max_cycle;Signal;HPM_P1;HPM_P2
2023/03/02 00:01:55;;;;;;;61.42;37.50;;;;;;;18.02;69.49;99527.00;5034586;28;20045;-65
2023/03/02 00:04:48;;;;;;;;;;;;;;;18.05;69.79;99531.97;5037138;28;20041;-64
2023/03/02 00:07:33;;;;;;;57.55;32.33;;;;;;;18.03;69.23;99525.97;5043386;28;19928;-65
2023/03/02 00:10:25;;;;;;;56.08;32.80;;;;;;;18.07;69.72;99529.84;5018568;28;20072;-65
2023/03/02 00:13:07;;;;;;;57.00;34.40;;;;;;;18.13;69.18;99526.31;5032736;28;20143;-64
2023/03/02 00:15:55;;;;;;;59.35;34.40;;;;;;;18.12;68.96;99530.03;5037693;28;20095;-65
2023/03/02 00:18:37;;;;;;;56.97;35.40;;;;;;;18.09;69.31;99535.84;5035254;28;20049;-63
2023/03/02 00:21:27;;;;;;;55.40;35.53;;;;;;;18.07;69.31;99530.69;5038121;28;20128;-64
2023/03/02 00:24:08;;;;;;;56.88;33.92;;;;;;;18.07;69.17;99529.84;5033307;28;20045;-65
2023/03/02 00:26:57;;;;;;;58.13;34.15;;;;;;;18.12;69.37;99528.16;5029365;28;20045;-63
2023/03/02 00:29:41;;;;;;;54.35;35.30;;;;;;;18.02;69.37;99535.88;5019167;28;20544;-64
2023/03/02 00:32:30;;;;;;;60.00;36.55;;;;;;;17.97;70.10;99538.41;5035979;28;20560;-64
2023/03/02 00:35:13;;;;;;;54.95;34.28;;;;;;;17.92;70.02;99531.00;5039736;28;20059;-63
2023/03/02 00:38:03;;;;;;;51.72;33.92;;;;;;;17.85;70.43;99535.63;5036950;28;20042;-65
2023/03/02 00:40:46;;;;;;;61.95;36.58;;;;;;;17.77;70.68;99530.53;5036404;28;20041;-63
2023/03/02 00:43:34;;;;;;;57.88;37.72;;;;;;;17.75;70.64;99529.91;5031758;28;20044;-63
2023/03/02 00:46:24;;;;;;;58.45;37.30;;;;;;;17.65;71.02;99550.22;5038272;28;20067;-66
2023/03/02 00:49:13;;;;;;;55.40;36.45;;;;;;;17.53;71.85;99547.38;5033965;28;20656;-64
2023/03/02 00:51:55;;;;;;;60.10;36.25;;;;;;;17.53;71.77;99558.06;5035150;28;20056;-65
2023/03/02 00:54:44;;;;;;;54.47;36.13;;;;;;;17.51;72.52;99554.81;5027110;28;20064;-65
2023/03/02 00:57:27;;;;;;;69.63;36.60;;;;;;;17.46;72.28;99555.47;5026826;28;20049;-64
2023/03/02 01:00:22;;;;;;;56.38;37.22;;;;;;;17.43;72.40;99555.06;5026648;28;20057;-64
2023/03/02 01:03:03;;;;;;;54.33;35.70;;;;;;;17.35;72.42;99563.34;5023809;28;20049;-65
2023/03/02 01:05:57;;;;;;;59.00;37.07;;;;;;;17.29;72.43;99558.88;5024159;28;20060;-66
2023/03/02 01:08:46;;;;;;;53.67;33.95;;;;;;;17.28;73.11;99575.97;5043985;28;20405;-63
2023/03/02 01:11:29;;;;;;;56.97;33.93;;;;;;;17.27;72.70;99572.47;5026168;28;20041;-64
2023/03/02 01:14:19;;;;;;;50.72;30.98;;;;;;;17.25;72.18;99566.50;5056048;28;20068;-64
2023/03/02 01:17:03;;;;;;;50.45;31.70;;;;;;;17.23;72.63;99575.78;5044262;28;20049;-64
2023/03/02 01:19:51;;;;;;;53.08;31.77;;;;;;;17.18;72.49;99576.41;5044585;28;20045;-64
2023/03/02 01:22:42;;;;;;;56.75;31.30;;;;;;;17.17;72.38;99582.78;5041964;28;20090;-64
2023/03/02 01:25:31;;;;;;;55.53;31.17;;;;;;;17.22;72.78;99587.50;5045317;28;20110;-64
2023/03/02 01:28:27;;;;;;;56.67;32.78;;;;;;;17.17;72.79;99600.75;5037003;28;20049;-64
2023/03/02 01:31:03;;;;;;;57.17;34.40;;;;;;;17.14;72.76;99603.81;5041720;28;20040;-65
2023/03/02 01:33:53;;;;;;;50.55;34.47;;;;;;;17.10;72.86;99610.63;5023067;28;20041;-64
2023/03/02 01:36:45;;;;;;;55.95;33.63;;;;;;;17.10;73.41;99600.75;5027860;28;20041;-64
2023/03/02 01:39:26;;;;;;;56.60;34.33;;;;;;;17.11;73.53;99618.47;5033687;28;20724;-65
2023/03/02 01:42:16;;;;;;;55.95;35.30;;;;;;;17.11;73.93;99610.44;5026889;28;20048;-64
2023/03/02 01:45:05;;;;;;;58.40;34.47;;;;;;;17.11;74.08;99617.63;5033967;28;20156;-64
2023/03/02 01:47:54;;;;;;;53.45;36.10;;;;;;;17.11;73.73;99606.94;5046266;28;20049;-64
2023/03/02 01:50:37;;;;;;;52.55;35.90;;;;;;;17.15;74.40;99608.16;5062692;28;20486;-63
2023/03/02 01:53:45;;;;;;;57.53;36.33;;;;;;;17.26;73.72;99613.66;5040783;28;20430;-63
2023/03/02 01:56:40;;;;;;;50.63;35.75;;;;;;;17.31;73.98;99618.34;5029880;28;20041;-63
2023/03/02 01:59:38;;;;;;;53.50;36.05;;;;;;;17.46;74.20;99621.59;5048884;28;20056;-62
2023/03/02 02:02:15;;;;;;;51.58;34.40;;;;;;;17.52;75.15;99626.91;5036714;28;20085;-62
2023/03/02 02:05:04;;;;;;;56.47;36.13;;;;;;;17.58;74.68;99635.97;5050512;28;20052;-63
2023/03/02 02:07:46;;;;;;;54.75;34.30;;;;;;;17.59;76.09;99628.75;5063609;28;20059;-62
2023/03/02 02:10:42;;;;;;;61.10;34.55;;;;;;;17.58;74.36;99625.25;5043180;28;20041;-62
2023/03/02 02:13:18;;;;;;;58.05;35.45;;;;;;;17.61;74.34;99618.66;5024189;28;20045;-63
2023/03/02 02:16:14;;;;;;;62.30;35.53;;;;;;;17.66;75.13;99625.00;5053700;28;20041;-64
2023/03/02 02:18:50;;;;;;;63.17;37.92;;;;;;;17.65;75.87;99619.88;5039281;28;20040;-63
2023/03/02 02:21:40;;;;;;;70.22;37.55;;;;;;;17.66;75.32;99625.00;5036091;28;20048;-63
2023/03/02 02:24:30;;;;;;;73.78;38.45;;;;;;;17.70;75.39;99633.44;5052078;28;20041;-63
2023/03/02 02:27:19;;;;;;;70.28;40.63;;;;;;;17.74;74.65;99634.66;5047776;28;20044;-62
2023/03/02 02:30:11;;;;;;;70.93;40.70;;;;;;;17.80;75.91;99639.97;5048896;28;20040;-65
2023/03/02 02:32:55;;;;;;;72.70;39.97;;;;;;;17.85;74.84;99645.50;5059107;28;20472;-64
2023/03/02 02:35:46;;;;;;;70.22;38.83;;;;;;;17.92;74.71;99640.91;5045227;28;20492;-63
2023/03/02 02:38:30;;;;;;;69.43;38.17;;;;;;;18.01;75.02;99646.03;5066129;28;20523;-63
2023/03/02 02:41:25;;;;;;;60.97;38.20;;;;;;;18.10;75.33;99650.09;5072515;28;20106;-62
2023/03/02 02:44:15;;;;;;;58.08;36.25;;;;;;;18.17;73.51;99648.97;5057690;28;20056;-63
2023/03/02 02:47:03;;;;;;;62.20;36.80;;;;;;;18.32;74.05;99654.03;5053749;28;20116;-62
2023/03/02 02:49:49;;;;;;;66.60;38.85;;;;;;;18.72;71.62;99657.22;5069756;28;20044;-63
2023/03/02 02:52:39;;;;;;;60.05;34.13;;;;;;;19.41;69.66;99659.50;5018198;28;20073;-64
2023/03/02 02:55:23;;;;;;;56.85;33.78;;;;;;;20.32;64.53;99655.75;5063401;28;20049;-63
2023/03/02 02:58:35;;;;;;;54.45;32.13;;;;;;;20.84;63.61;99660.25;5069335;28;20128;-63
2023/03/02 03:01:26;;;;;;;55.03;32.13;;;;;;;21.32;61.22;99651.03;5055528;28;20098;-64
2023/03/02 03:04:19;;;;;;;49.70;30.13;;;;;;;21.56;61.24;99662.53;5069322;28;20048;-64
2023/03/02 03:07:04;;;;;;;52.78;32.25;;;;;;;21.65;61.12;99667.31;5054669;28;20044;-63
2023/03/02 03:10:01;;;;;;;60.40;33.70;;;;;;;21.68;60.79;99676.81;5067547;28;20047;-64
2023/03/02 03:12:44;;;;;;;60.10;32.20;;;;;;;22.05;58.77;99678.06;5067580;28;20040;-64
2023/03/02 03:15:34;;;;;;;68.40;33.40;;;;;;;22.10;57.67;99672.75;5063425;28;20125;-64
2023/03/02 03:18:23;;;;;;;61.25;36.10;;;;;;;22.02;57.71;99670.47;5064515;28;20051;-63
2023/03/02 03:21:11;;;;;;;62.45;35.13;;;;;;;22.61;57.86;99668.19;5057425;28;20086;-63
2023/03/02 03:23:53;;;;;;;67.35;38.05;;;;;;;22.50;55.60;99675.31;5047884;28;20136;-65
2023/03/02 03:26:42;;;;;;;72.05;39.38;;;;;;;22.62;56.54;99681.44;5054174;28;20052;-63
2023/03/02 03:29:40;;;;;;;66.03;39.13;;;;;;;22.85;55.93;99688.56;5047838;28;20079;-63
2023/03/02 03:32:18;;;;;;;74.70;41.45;;;;;;;22.82;51.81;99686.38;5044258;28;20056;-64
2023/03/02 03:35:14;;;;;;;;;;;;;;;22.76;55.44;99680.06;5027361;28;20546;-64
2023/03/02 03:37:50;;;;;;;73.47;42.40;;;;;;;22.79;54.07;99681.47;5063062;28;19935;-65
2023/03/02 03:40:45;;;;;;;65.70;41.08;;;;;;;23.00;51.07;99683.41;5057781;28;20039;-65
2023/03/02 03:43:21;;;;;;;64.47;37.50;;;;;;;23.14;51.76;99687.38;5045605;28;20067;-64
2023/03/02 03:46:11;;;;;;;69.65;34.35;;;;;;;22.91;50.39;99689.47;5048276;28;20052;-63
2023/03/02 03:49:00;;;;;;;46.00;29.33;;;;;;;22.98;50.54;99687.41;5061848;28;20045;-65
2023/03/02 03:51:43;;;;;;;48.13;30.02;;;;;;;23.36;52.62;99689.28;5026975;28;20048;-64
2023/03/02 03:54:32;;;;;;;57.75;33.15;;;;;;;23.52;53.65;99700.03;5027105;28;20365;-64
2023/03/02 03:57:28;;;;;;;55.80;32.33;;;;;;;23.99;52.27;99694.88;5043870;28;20041;-64
2023/03/02 04:00:13;;;;;;;59.05;34.97;;;;;;;24.17;51.09;99697.25;4999947;28;20056;-62
2023/03/02 04:03:09;;;;;;;62.47;35.60;;;;;;;24.37;49.10;99699.34;5003745;28;20045;-65
2023/03/02 04:05:52;;;;;;;52.22;29.98;;;;;;;24.98;46.82;99695.19;4990336;28;20496;-64
2023/03/02 04:08:40;;;;;;;53.83;28.95;;;;;;;25.33;46.56;99696.47;5031174;28;20540;-63
2023/03/02 04:11:23;;;;;;;50.17;27.33;;;;;;;25.30;42.78;99705.94;5025912;28;20132;-62
2023/03/02 04:14:12;;;;;;;46.83;26.15;;;;;;;25.13;46.06;99699.09;5005266;28;20053;-61
2023/03/02 04:17:04;;;;;;;41.60;25.33;;;;;;;26.05;44.50;99699.16;5005509;28;20116;-62
2023/03/02 04:19:50;;;;;;;43.90;25.52;;;;;;;25.92;41.72;99692.38;5015328;28;20060;-62
2023/03/02 04:22:39;;;;;;;43.55;25.98;;;;;;;26.32;42.35;99685.38;5018979;28;20061;-63
2023/03/02 04:25:25;;;;;;;42.50;25.77;;;;;;;26.77;42.63;99674.47;4971284;28;20045;-63
2023/03/02 04:28:19;;;;;;;38.10;23.30;;;;;;;27.34;39.65;99669.72;4999070;28;20148;-62
2023/03/02 04:31:03;;;;;;;49.10;23.75;;;;;;;26.80;40.20;99671.22;4997056;28;20042;-66
2023/03/02 04:33:58;;;;;;;42.75;24.70;;;;;;;27.16;40.97;99674.69;5017421;28;20063;-64
2023/03/02 04:36:38;;;;;;;38.97;23.38;;;;;;;27.50;39.80;99674.03;5003141;28;20045;-62
2023/03/02 04:39:27;;;;;;;46.58;24.33;;;;;;;26.85;39.59;99673.13;5028260;28;20045;-64
2023/03/02 04:42:17;;;;;;;39.50;21.98;;;;;;;26.73;38.73;99676.09;5022942;28;20041;-64
2023/03/02 04:44:59;;;;;;;40.38;23.25;;;;;;;26.46;38.53;99675.59;5022806;28;20091;-65
2023/03/02 04:47:49;;;;;;;42.00;23.00;;;;;;;27.55;38.55;99674.81;4995986;28;20056;-63
2023/03/02 04:50:31;;;;;;;43.05;23.98;;;;;;;27.18;39.07;99682.53;5012319;28;20077;-64
2023/03/02 04:53:20;;;;;;;40.85;24.13;;;;;;;27.71;38.21;99683.69;5018821;28;20076;-65
2023/03/02 04:56:01;;;;;;;32.72;21.60;;;;;;;28.46;38.06;99685.13;5029557;28;20065;-65
2023/03/02 04:58:58;;;;;;;33.40;19.75;;;;;;;27.16;37.08;99690.19;5014343;28;20430;-66
2023/03/02 05:01:47;;;;;;;37.00;20.13;;;;;;;26.39;38.46;99691.34;5056275;28;20063;-64
2023/03/02 05:04:39;;;;;;;40.65;20.83;;;;;;;26.78;38.53;99689.69;5046278;28;20064;-65
2023/03/02 05:07:21;;;;;;;38.03;21.63;;;;;;;27.92;38.87;99687.97;5067461;28;20094;-66
2023/03/02 05:10:10;;;;;;;37.28;21.92;;;;;;;28.00;37.41;99690.09;5056768;28;20045;-64
2023/03/02 05:13:03;;;;;;;37.08;22.80;;;;;;;27.85;37.07;99681.19;5061678;28;20132;-62
2023/03/02 05:15:53;;;;;;;36.88;22.17;;;;;;;28.40;38.91;99689.00;5063676;28;20048;-63
2023/03/02 05:18:41;;;;;;;45.75;23.67;;;;;;;28.44;38.24;99679.16;5025113;28;20048;-61
2023/03/02 05:21:25;;;;;;;46.72;23.33;;;;;;;28.67;38.94;99687.69;5065857;28;20152;-60
2023/03/02 05:24:20;;;;;;;51.53;22.80;;;;;;;28.68;38.38;99678.41;5057193;28;20052;-61
2023/03/02 05:27:09;;;;;;;53.05;25.98;;;;;;;27.61;37.71;99690.03;5061164;28;20040;-62
2023/03/02 05:29:51;;;;;;;46.53;22.95;;;;;;;27.17;38.60;99692.59;5067912;28;20127;-62
2023/03/02 05:32:40;;;;;;;35.78;22.33;;;;;;;27.80;39.09;99690.19;5058878;28;20040;-62
2023/03/02 05:35:29;;;;;;;51.28;22.70;;;;;;;28.63;40.12;99692.91;5065593;28;20040;-61
2023/03/02 05:38:12;;;;;;;35.80;21.17;;;;;;;28.58;35.84;99682.84;5075165;28;20060;-62
2023/03/02 05:41:00;;;;;;;42.30;22.95;;;;;;;29.13;38.22;99685.31;5084741;28;20044;-59
2023/03/02 05:43:42;;;;;;;38.58;21.33;;;;;;;28.70;36.21;99690.66;5069649;28;20105;-65
2023/03/02 05:46:31;;;;;;;31.42;18.70;;;;;;;28.88;38.92;99684.50;5057819;28;20064;-60
2023/03/02 05:49:14;;;;;;;31.38;19.23;;;;;;;28.99;38.49;99679.72;5059452;28;20048;-62
2023/03/02 05:52:03;;;;;;;31.40;19.70;;;;;;;28.76;38.65;99677.81;5053616;28;20476;-61
2023/03/02 05:54:45;;;;;;;30.05;18.27;;;;;;;28.91;36.39;99683.09;5059241;28;20152;-62
2023/03/02 05:57:34;;;;;;;27.58;15.85;;;;;;;28.66;33.80;99681.41;5046865;28;20052;-63
2023/03/02 06:00:18;;;;;;;25.52;14.95;;;;;;;29.12;36.18;99670.84;5066253;28;20036;-64
2023/03/02 06:03:06;;;;;;;33.95;15.82;;;;;;;29.62;34.33;99674.09;5063629;28;20067;-64
2023/03/02 06:05:49;;;;;;;25.50;15.27;;;;;;;27.81;35.70;99664.59;5068344;28;20072;-63
2023/03/02 06:08:39;;;;;;;23.95;13.82;;;;;;;28.48;33.16;99665.75;5069159;28;20404;-64
2023/03/02 06:11:21;;;;;;;23.13;12.38;;;;;;;28.79;34.44;99658.13;5064299;28;20044;-61
2023/03/02 06:14:10;;;;;;;17.45;11.57;;;;;;;28.36;35.07;99663.41;5061456;28;20053;-62
2023/03/02 06:16:52;;;;;;;24.23;12.70;;;;;;;27.69;34.74;99661.41;5073433;28;20390;-61
2023/03/02 06:19:41;;;;;;;21.73;11.65;;;;;;;27.35;33.48;99655.03;5059416;28;20037;-61
2023/03/02 06:22:23;;;;;;;26.95;14.65;;;;;;;27.46;37.72;99656.59;5043659;28;20118;-64
2023/03/02 06:25:19;;;;;;;25.73;14.13;;;;;;;27.56;34.99;99654.69;5058425;28;20758;-62
2023/03/02 06:28:01;;;;;;;26.17;14.70;;;;;;;27.30;36.82;99661.31;5067467;28;20688;-65
2023/03/02 06:30:51;;;;;;;25.42;15.27;;;;;;;27.39;35.66;99656.09;5074666;28;20053;-68
2023/03/02 06:33:39;;;;;;;29.42;14.70;;;;;;;27.32;37.95;99656.38;5041972;28;20535;-67
2023/03/02 06:36:21;;;;;;;31.98;15.65;;;;;;;27.60;34.79;99652.19;5070038;28;20036;-66
2023/03/02 06:39:14;;;;;;;28.60;15.77;;;;;;;27.73;37.49;99637.16;5053893;28;20083;-65
2023/03/02 06:41:57;;;;;;;34.53;15.98;;;;;;;28.34;33.15;99638.34;5053410;28;20129;-70
2023/03/02 06:44:47;;;;;;;31.70;16.63;;;;;;;28.58;37.46;99635.69;4367534;28;10000765;-68
2023/03/02 06:47:36;;;;;;;28.10;15.40;;;;;;;28.97;32.94;99632.84;5057149;28;20044;-72
2023/03/02 06:50:17;;;;;;;27.02;13.98;;;;;;;28.59;34.22;99627.19;5050656;28;20389;-72
2023/03/02 06:53:06;;;;;;;28.55;15.80;;;;;;;28.00;34.57;99619.25;5048218;28;20059;-73
2023/03/02 06:55:49;;;;;;;25.67;15.43;;;;;;;27.90;35.30;99607.63;5070575;28;20044;-72
2023/03/02 06:58:44;;;;;;;30.42;16.00;;;;;;;28.22;35.97;99613.41;5062009;28;20044;-70
2023/03/02 07:01:34;;;;;;;29.17;15.68;;;;;;;28.34;35.69;99607.56;5052402;28;20049;-71
2023/03/02 07:04:24;;;;;;;26.40;14.60;;;;;;;28.51;36.52;99603.28;5070838;28;20068;-72
2023/03/02 07:07:05;;;;;;;25.48;15.98;;;;;;;28.86;36.84;99613.03;5063054;28;20051;-73
2023/03/02 07:09:54;;;;;;;26.63;16.20;;;;;;;28.07;32.94;99611.56;5065881;28;20085;-73
2023/03/02 07:12:38;;;;;;;25.20;14.70;;;;;;;28.29;36.22;99608.41;5059021;28;20383;-70
2023/03/02 07:15:26;;;;;;;30.98;15.75;;;;;;;28.05;33.40;99594.72;5056759;28;20059;-71
2023/03/02 07:18:08;;;;;;;27.52;15.73;;;;;;;28.17;33.73;99593.56;5061994;28;20432;-69
2023/03/02 07:20:57;;;;;;;37.97;15.68;;;;;;;28.35;36.09;99587.38;5066018;28;20049;-72
2023/03/02 07:23:39;;;;;;;22.85;14.43;;;;;;;28.50;36.89;99588.03;5074358;28;20056;-70
2023/03/02 07:26:29;;;;;;;27.70;13.55;;;;;;;28.79;36.54;99589.94;4728910;28;10000640;-69
2023/03/02 07:29:11;;;;;;;25.55;14.88;;;;;;;28.40;33.78;99574.53;5060178;28;20170;-67
2023/03/02 07:32:00;;;;;;;24.83;13.55;;;;;;;28.28;34.67;99579.53;5050660;28;20044;-74
2023/03/02 07:34:42;;;;;;;28.08;13.15;;;;;;;28.00;32.67;99577.59;5064585;28;20788;-71
2023/03/02 07:37:31;;;;;;;26.02;13.07;;;;;;;28.34;35.29;99578.41;5056915;28;20075;-70
2023/03/02 07:40:14;;;;;;;25.85;11.98;;;;;;;28.48;36.17;99565.72;5063844;28;20650;-71
2023/03/02 07:43:02;;;;;;;23.70;11.55;;;;;;;28.41;34.17;99557.06;5068974;28;20460;-72
2023/03/02 07:45:45;;;;;;;25.60;12.02;;;;;;;28.21;34.93;99545.56;5065084;28;20051;-73
2023/03/02 07:48:33;;;;;;;26.50;14.68;;;;;;;28.25;37.37;99549.34;5064794;28;20068;-71
2023/03/02 07:51:15;;;;;;;28.90;13.73;;;;;;;28.03;37.41;99550.59;5044388;28;20451;-74
2023/03/02 07:54:04;;;;;;;27.63;12.40;;;;;;;27.90;36.82;99531.38;5051065;28;20064;-74
2023/03/02 07:56:47;;;;;;;23.73;11.52;;;;;;;28.04;37.01;99529.63;5063968;28;20044;-71
2023/03/02 07:59:42;;;;;;;22.92;10.57;;;;;;;27.96;37.00;99522.06;5045688;28;20627;-66
2023/03/02 08:02:19;;;;;;;21.25;10.75;;;;;;;27.93;37.06;99512.56;5024646;28;20111;-66
2023/03/02 08:05:08;;;;;;;20.27;10.85;;;;;;;27.79;37.03;99508.88;5013251;28;20045;-66
2023/03/02 08:07:52;;;;;;;27.23;10.73;;;;;;;27.58;37.42;99510.13;5029028;28;20122;-65
2023/03/02 08:10:47;;;;;;;19.88;8.68;;;;;;;27.63;36.75;99516.34;5029396;28;20053;-66
2023/03/02 08:13:23;;;;;;;17.65;9.75;;;;;;;27.65;37.41;99513.34;5024885;28;20053;-66
2023/03/02 08:16:20;;;;;;;20.35;13.18;;;;;;;27.66;38.54;99526.66;5025628;28;20067;-66
2023/03/02 08:18:56;;;;;;;23.73;9.63;;;;;;;27.48;36.68;99513.75;5014735;28;20065;-69
2023/03/02 08:21:51;;;;;;;21.13;10.45;;;;;;;27.35;38.33;99519.00;5019777;28;20144;-66
2023/03/02 08:24:27;;;;;;;28.75;10.30;;;;;;;27.15;37.45;99522.63;5035554;28;20571;-64
2023/03/02 08:27:15;;;;;;;22.30;10.20;;;;;;;27.26;38.43;99510.63;5016229;28;20553;-66
2023/03/02 08:29:57;;;;;;;23.67;10.65;;;;;;;27.42;38.47;99497.72;5020743;28;20506;-67
2023/03/02 08:32:52;;;;;;;19.15;10.55;;;;;;;27.51;37.97;99501.47;5025392;28;20045;-68
2023/03/02 08:35:28;;;;;;;24.38;10.70;;;;;;;27.59;37.66;99490.78;5029322;28;20148;-69
2023/03/02 08:38:16;;;;;;;21.42;11.57;;;;;;;27.50;37.45;99478.06;5033488;28;20516;-62
2023/03/02 08:41:09;;;;;;;31.33;11.95;;;;;;;27.35;37.88;99481.69;5018810;28;20140;-73
2023/03/02 08:43:55;;;;;;;25.42;11.48;;;;;;;27.35;38.24;99470.81;5019961;28;20045;-68
2023/03/02 08:46:44;;;;;;;28.58;13.55;;;;;;;27.24;38.91;99472.81;5025497;28;20369;-65
2023/03/02 08:49:26;;;;;;;21.50;11.73;;;;;;;27.10;38.86;99460.91;5037992;28;20044;-66
2023/03/02 08:52:16;;;;;;;24.88;11.60;;;;;;;27.12;41.09;99458.75;5018835;28;20052;-71
2023/03/02 08:54:57;;;;;;;19.02;10.02;;;;;;;27.10;40.46;99454.66;5023803;28;20056;-66
2023/03/02 08:57:47;;;;;;;31.08;13.52;;;;;;;27.09;39.51;99447.59;5025944;28;20103;-62
2023/03/02 09:00:43;;;;;;;35.42;13.38;;;;;;;27.11;39.39;99453.56;5042711;28;20103;-63
2023/03/02 09:03:20;;;;;;;29.63;13.55;;;;;;;27.00;39.47;99441.13;5053789;28;20098;-66
2023/03/02 09:06:15;;;;;;;31.98;13.90;;;;;;;27.06;42.38;99440.00;5032129;28;20371;-69
2023/03/02 09:08:51;;;;;;;24.65;13.70;;;;;;;27.09;39.59;99451.13;5029986;28;20525;-66
2023/03/02 09:11:41;;;;;;;25.30;12.73;;;;;;;27.09;41.10;99440.25;5057873;28;20052;-69
2023/03/02 09:14:29;;;;;;;20.85;13.32;;;;;;;27.10;40.47;99441.06;5015827;28;20084;-68
2023/03/02 09:17:24;;;;;;;21.90;13.40;;;;;;;27.02;40.57;99434.34;5040828;28;20491;-66
2023/03/02 09:20:00;;;;;;;26.40;13.40;;;;;;;27.03;40.13;99427.81;5050738;28;20076;-67
2023/03/02 09:22:49;;;;;;;26.42;14.18;;;;;;;27.06;38.78;99423.69;5051942;28;20052;-65
2023/03/02 09:25:38;;;;;;;27.50;13.57;;;;;;;27.05;40.46;99419.34;5053112;28;20152;-73
2023/03/02 09:28:21;;;;;;;27.98;13.68;;;;;;;26.96;40.09;99421.03;5029464;28;20119;-66
2023/03/02 09:31:12;;;;;;;25.92;12.68;;;;;;;27.05;40.71;99408.47;5027290;28;20057;-68
2023/03/02 09:33:55;;;;;;;26.45;13.10;;;;;;;27.11;40.68;99412.78;5045002;28;20051;-68
2023/03/02 09:36:44;;;;;;;26.77;12.85;;;;;;;27.03;40.72;99416.13;5047189;28;20053;-70
2023/03/02 09:39:26;;;;;;;24.33;11.93;;;;;;;26.89;40.42;99420.53;5048844;28;20094;-70
2023/03/02 09:42:22;;;;;;;25.48;12.25;;;;;;;26.82;41.29;99426.25;5045692;28;20140;-67
2023/03/02 09:45:44;;;;;;;22.30;12.98;;;;;;;26.76;40.13;99417.34;5057245;28;20044;-64
2023/03/02 09:49:11;;;;;;;29.00;12.18;;;;;;;26.73;41.60;99417.09;5048418;28;20052;-68
2023/03/02 09:52:08;;;;;;;24.27;11.45;;;;;;;26.72;41.20;99412.75;5036339;28;20647;-69
2023/03/02 09:54:57;;;;;;;26.65;11.98;;;;;;;26.77;41.22;99408.09;5036195;28;20136;-66
2023/03/02 09:57:40;;;;;;;20.83;11.68;;;;;;;26.71;41.62;99401.06;5042270;28;20797;-68
2023/03/02 10:00:42;;;;;;;32.95;14.93;;;;;;;26.67;42.09;99415.47;5045902;28;20098;-68
2023/03/02 10:03:26;;;;;;;26.27;14.52;;;;;;;26.67;41.96;99402.72;5050508;28;20041;-69
2023/03/02 10:06:20;;;;;;;28.65;15.07;;;;;;;26.67;43.48;99405.44;5022530;28;20049;-68
2023/03/02 10:08:56;;;;;;;36.17;20.95;;;;;;;26.61;43.25;99397.56;5039925;28;20122;-68
2023/03/02 10:12:22;;;;;;;28.67;18.15;;;;;;;26.59;43.62;99392.44;5052992;28;20051;-68
2023/03/02 10:15:09;;;;;;;45.35;26.30;;;;;;;26.51;44.06;99390.28;4982544;28;20565;-67
2023/03/02 10:18:09;;;;;;;36.80;22.17;;;;;;;26.52;43.69;99394.63;5036626;28;20060;-67
2023/03/02 10:20:57;;;;;;;;;;;;;;;26.46;43.86;99389.50;5038032;28;20412;-67
2023/03/02 10:24:12;;;;;;;22.45;13.77;;;;;;;26.44;43.77;99384.34;5035707;28;19921;-67
2023/03/02 10:27:16;;;;;;;34.28;17.02;;;;;;;26.32;44.12;99384.69;5016687;28;20103;-68
2023/03/02 10:30:35;;;;;;;36.90;18.83;;;;;;;26.27;43.60;99386.59;5043198;28;20049;-64
2023/03/02 10:33:20;;;;;;;32.78;17.65;;;;;;;26.14;43.83;99379.84;5014822;28;20037;-62
2023/03/02 10:36:34;;;;;;;36.72;15.90;;;;;;;26.14;44.06;99381.72;5037360;28;20746;-67
2023/03/02 10:39:16;;;;;;;30.35;16.52;;;;;;;26.14;44.36;99379.03;5035388;28;20705;-65
2023/03/02 10:42:19;;;;;;;29.98;15.85;;;;;;;25.99;44.06;99376.34;5008478;28;20047;-66
2023/03/02 10:45:01;;;;;;;26.55;15.70;;;;;;;25.81;44.64;99370.44;5041425;28;20050;-65
2023/03/02 10:48:11;;;;;;;27.90;16.58;;;;;;;25.53;45.98;99375.63;5034213;28;20172;-67
2023/03/02 10:50:53;;;;;;;28.83;14.75;;;;;;;25.42;45.94;99377.53;5033727;28;20140;-68
2023/03/02 10:53:48;;;;;;;30.02;14.30;;;;;;;25.31;46.58;99371.31;5035324;28;20083;-66
2023/03/02 10:56:24;;;;;;;27.63;13.07;;;;;;;25.24;46.59;99367.22;5054988;28;20049;-65
2023/03/02 10:59:31;;;;;;;25.10;13.65;;;;;;;25.23;47.60;99373.72;5052189;28;20474;-65
2023/03/02 11:02:33;;;;;;;25.55;13.35;;;;;;;25.23;47.40;99376.44;5052764;28;20102;-65
2023/03/02 11:05:18;;;;;;;24.65;13.95;;;;;;;25.32;47.03;99377.53;5026146;28;20116;-68
2023/03/02 11:08:22;;;;;;;23.38;12.80;;;;;;;25.31;46.41;99382.16;5053549;28;20076;-68
2023/03/02 11:11:29;;;;;;;25.33;12.95;;;;;;;25.27;47.42;99381.03;5051290;28;20079;-67
2023/03/02 11:14:24;;;;;;;33.45;12.80;;;;;;;25.21;47.14;99373.19;5050365;28;20049;-68
2023/03/02 11:17:33;;;;;;;26.30;13.50;;;;;;;25.20;46.57;99369.66;5053558;28;20128;-67
2023/03/02 11:20:37;;;;;;;30.23;11.63;;;;;;;25.22;47.56;99370.22;5029077;28;20053;-66
2023/03/02 11:23:44;;;;;;;27.70;12.50;;;;;;;25.13;45.73;99371.03;5051469;28;20378;-66
2023/03/02 11:26:49;;;;;;;20.70;11.05;;;;;;;25.10;46.08;99377.78;5065348;28;20044;-66
2023/03/02 11:29:58;;;;;;;23.92;11.00;;;;;;;25.14;47.20;99388.94;5038175;28;20111;-67
2023/03/02 11:32:50;;;;;;;25.45;10.93;;;;;;;25.23;46.98;99381.84;5035923;28;20040;-67
2023/03/02 11:36:11;;;;;;;22.42;9.63;;;;;;;25.32;44.10;99362.06;5043724;28;20497;-67
2023/03/02 11:39:04;;;;;;;22.58;9.32;;;;;;;25.35;45.07;99375.09;5053106;28;20047;-68
2023/03/02 11:41:47;;;;;;;22.13;9.07;;;;;;;25.29;44.11;99378.88;5035021;28;20041;-67
2023/03/02 11:44:36;;;;;;;17.52;10.00;;;;;;;25.29;45.04;99387.03;5043773;28;20076;-67
2023/03/02 11:47:26;;;;;;;18.02;8.68;;;;;;;25.22;43.81;99393.81;5047212;28;20049;-69
2023/03/02 11:50:13;;;;;;;15.50;8.02;;;;;;;25.02;45.03;99390.00;5030772;28;20106;-67
2023/03/02 11:53:10;;;;;;;13.98;7.57;;;;;;;25.01;44.99;99388.34;5025714;28;20048;-65
2023/03/02 11:55:52;;;;;;;19.38;8.38;;;;;;;24.93;45.07;99388.91;5051371;28;20049;-68
2023/03/02 11:58:43;;;;;;;15.25;7.90;;;;;;;24.82;45.32;99398.06;5022970;28;20049;-66
2023/03/02 12:01:34;;;;;;;17.02;7.53;;;;;;;24.78;45.62;99405.13;5043360;28;20067;-63
2023/03/02 12:04:33;;;;;;;19.02;8.07;;;;;;;24.71;46.37;99401.00;5042773;28;20052;-66
2023/03/02 12:07:43;;;;;;;22.27;8.07;;;;;;;24.71;47.39;99398.31;5036299;28;20588;-65
2023/03/02 12:10:39;;;;;;;12.15;8.20;;;;;;;24.60;47.24;99400.19;5030441;28;20045;-64
2023/03/02 12:13:20;;;;;;;16.15;9.43;;;;;;;24.68;48.04;99401.56;5042211;28;20041;-66
2023/03/02 12:16:39;;;;;;;11.18;8.68;;;;;;;24.63;48.45;99405.06;5038865;28;20059;-66
2023/03/02 12:19:38;;;;;;;18.73;7.93;;;;;;;24.50;47.68;99413.69;5032564;28;20080;-67
2023/03/02 12:22:30;;;;;;;19.35;8.15;;;;;;;24.37;47.93;99415.00;5037544;28;21281;-66
2023/03/02 12:25:26;;;;;;;15.15;8.38;;;;;;;24.34;48.96;99420.13;5035101;28;20551;-65
2023/03/02 12:28:26;;;;;;;17.55;8.68;;;;;;;24.31;50.76;99432.28;5025429;28;20042;-64
2023/03/02 12:31:18;;;;;;;16.45;8.50;;;;;;;24.20;52.17;99425.22;5042368;28;20098;-66
2023/03/02 12:34:38;;;;;;;21.85;9.77;;;;;;;24.10;53.14;99439.47;4364809;28;10020695;-62
2023/03/02 12:37:23;;;;;;;19.23;8.90;;;;;;;23.94;54.66;99447.78;5026285;28;20160;-62
2023/03/02 12:40:32;;;;;;;17.40;9.70;;;;;;;23.97;53.95;99445.34;5034231;28;20072;-61
2023/03/02 12:43:32;;;;;;;20.17;11.60;;;;;;;23.88;54.50;99449.63;5039493;28;20045;-67
2023/03/02 12:46:28;;;;;;;17.67;9.07;;;;;;;24.02;53.73;99444.56;5034801;28;20048;-68
2023/03/02 12:49:44;;;;;;;17.90;9.27;;;;;;;24.00;53.76;99458.34;5043609;28;20723;-62
2023/03/02 12:52:36;;;;;;;14.65;8.50;;;;;;;24.03;53.08;99470.56;5036468;28;20045;-67
2023/03/02 12:55:25;;;;;;;17.67;8.77;;;;;;;23.99;53.01;99472.94;5041280;28;20514;-66
2023/03/02 12:58:22;;;;;;;15.85;8.68;;;;;;;23.98;53.18;99465.94;5029915;28;20417;-67
2023/03/02 13:01:28;;;;;;;16.65;8.60;;;;;;;23.98;52.74;99471.34;5036126;28;20048;-67
2023/03/02 13:04:29;;;;;;;19.58;9.27;;;;;;;23.88;53.54;99475.88;5030752;28;20476;-69